sensor_id;sensor_type;location;lat;lon;timestamp;pressure;altitude;pressure_sealevel;temperature;humidity
34374;BME280;20637;55.770;37.592;2022-07-01T00:01:45;99710.44;;;20.25;48.37
34374;BME280;20637;55.770;37.592;2022-07-01T00:04:13;99710.66;;;20.24;48.66
34374;BME280;20637;55.770;37.592;2022-07-01T00:06:39;99713.38;;;20.24;48.45
34374;BME280;20637;55.770;37.592;2022-07-01T00:09:05;99709.22;;;20.21;48.60
34374;BME280;20637;55.770;37.592;2022-07-01T00:11:31;99709.66;;;20.18;48.58
34374;BME280;20637;55.770;37.592;2022-07-01T00:13:57;99715.63;;;20.15;48.69
34374;BME280;20637;55.770;37.592;2022-07-01T00:16:23;99716.88;;;20.13;48.99
34374;BME280;20637;55.770;37.592;2022-07-01T00:18:49;99718.66;;;20.07;49.08
34374;BME280;20637;55.770;37.592;2022-07-01T00:21:14;99716.81;;;20.01;49.23
34374;BME280;20637;55.770;37.592;2022-07-01T00:23:41;99724.03;;;19.95;49.44
34374;BME280;20637;55.770;37.592;2022-07-01T00:26:07;99723.66;;;19.92;49.51
34374;BME280;20637;55.770;37.592;2022-07-01T00:28:33;99720.75;;;19.87;49.64
34374;BME280;20637;55.770;37.592;2022-07-01T00:30:59;99718.94;;;19.81;49.90
34374;BME280;20637;55.770;37.592;2022-07-01T00:33:25;99716.19;;;19.81;49.96
34374;BME280;20637;55.770;37.592;2022-07-01T00:35:51;99717.25;;;19.80;50.11
34374;BME280;20637;55.770;37.592;2022-07-01T00:38:17;99722.56;;;19.75;50.22
34374;BME280;20637;55.770;37.592;2022-07-01T00:40:43;99724.91;;;19.71;50.41
34374;BME280;20637;55.770;37.592;2022-07-01T00:43:09;99712.53;;;19.69;50.50
34374;BME280;20637;55.770;37.592;2022-07-01T00:45:35;99711.88;;;19.67;50.67
34374;BME280;20637;55.770;37.592;2022-07-01T00:48:00;99716.13;;;19.63;50.68
34374;BME280;20637;55.770;37.592;2022-07-01T00:50:27;99712.16;;;19.59;50.97
34374;BME280;20637;55.770;37.592;2022-07-01T00:52:52;99709.88;;;19.56;51.13
34374;BME280;20637;55.770;37.592;2022-07-01T00:55:18;99710.81;;;19.49;51.26
34374;BME280;20637;55.770;37.592;2022-07-01T00:57:44;99711.69;;;19.43;51.34
34374;BME280;20637;55.770;37.592;2022-07-01T01:00:12;99718.88;;;19.38;51.50
34374;BME280;20637;55.770;37.592;2022-07-01T01:02:39;99725.47;;;19.30;51.86
34374;BME280;20637;55.770;37.592;2022-07-01T01:05:06;99722.16;;;19.22;52.08
34374;BME280;20637;55.770;37.592;2022-07-01T01:07:33;99721.97;;;19.17;52.17
34374;BME280;20637;55.770;37.592;2022-07-01T01:09:59;99725.59;;;19.11;52.35
34374;BME280;20637;55.770;37.592;2022-07-01T01:12:28;99727.94;;;19.07;52.55
34374;BME280;20637;55.770;37.592;2022-07-01T01:14:55;99726.31;;;18.99;52.65
34374;BME280;20637;55.770;37.592;2022-07-01T01:17:21;99727.56;;;18.97;52.77
34374;BME280;20637;55.770;37.592;2022-07-01T01:19:48;99719.59;;;18.95;53.00
34374;BME280;20637;55.770;37.592;2022-07-01T01:22:15;99721.69;;;18.93;52.92
34374;BME280;20637;55.770;37.592;2022-07-01T01:24:42;99726.97;;;18.95;53.19
34374;BME280;20637;55.770;37.592;2022-07-01T01:27:08;99734.94;;;18.96;53.12
34374;BME280;20637;55.770;37.592;2022-07-01T01:29:38;99726.97;;;18.95;53.32
34374;BME280;20637;55.770;37.592;2022-07-01T01:32:05;99729.31;;;18.91;53.27
34374;BME280;20637;55.770;37.592;2022-07-01T01:34:35;99739.59;;;18.89;53.37
34374;BME280;20637;55.770;37.592;2022-07-01T01:37:03;99736.66;;;18.91;53.34
34374;BME280;20637;55.770;37.592;2022-07-01T01:39:29;99726.78;;;18.90;53.49
34374;BME280;20637;55.770;37.592;2022-07-01T01:41:55;99722.34;;;18.89;53.46
34374;BME280;20637;55.770;37.592;2022-07-01T01:44:20;99735.22;;;18.82;53.49
34374;BME280;20637;55.770;37.592;2022-07-01T01:46:46;99732.53;;;18.75;53.75
34374;BME280;20637;55.770;37.592;2022-07-01T01:49:12;99736.78;;;18.71;53.94
34374;BME280;20637;55.770;37.592;2022-07-01T01:51:38;99737.22;;;18.68;53.78
34374;BME280;20637;55.770;37.592;2022-07-01T01:54:04;99741.19;;;18.66;53.89
34374;BME280;20637;55.770;37.592;2022-07-01T01:56:30;99735.72;;;18.66;53.99
34374;BME280;20637;55.770;37.592;2022-07-01T01:58:57;99741.19;;;18.66;53.71
34374;BME280;20637;55.770;37.592;2022-07-01T02:01:23;99734.47;;;18.68;53.58
34374;BME280;20637;55.770;37.592;2022-07-01T02:03:50;99743.69;;;18.74;53.73
34374;BME280;20637;55.770;37.592;2022-07-01T02:06:17;99735.03;;;18.77;53.48
34374;BME280;20637;55.770;37.592;2022-07-01T02:08:43;99743.66;;;18.80;53.58
34374;BME280;20637;55.770;37.592;2022-07-01T02:11:09;99751.88;;;18.80;53.37
34374;BME280;20637;55.770;37.592;2022-07-01T02:13:35;99750.59;;;18.83;53.27
34374;BME280;20637;55.770;37.592;2022-07-01T02:16:21;99749.75;;;18.82;53.35
34374;BME280;20637;55.770;37.592;2022-07-01T02:18:47;99752.28;;;18.84;53.32
34374;BME280;20637;55.770;37.592;2022-07-01T02:21:14;99744.69;;;18.86;53.25
34374;BME280;20637;55.770;37.592;2022-07-01T02:23:39;99750.38;;;18.84;52.78
34374;BME280;20637;55.770;37.592;2022-07-01T02:26:06;99753.97;;;18.78;52.32
34374;BME280;20637;55.770;37.592;2022-07-01T02:28:31;99758.00;;;18.76;52.12
34374;BME280;20637;55.770;37.592;2022-07-01T02:30:57;99760.94;;;18.74;51.88
34374;BME280;20637;55.770;37.592;2022-07-01T02:33:23;99762.44;;;18.70;51.46
34374;BME280;20637;55.770;37.592;2022-07-01T02:35:48;99767.53;;;18.60;50.83
34374;BME280;20637;55.770;37.592;2022-07-01T02:38:15;99764.19;;;18.51;50.66
34374;BME280;20637;55.770;37.592;2022-07-01T02:40:41;99772.81;;;18.48;50.53
34374;BME280;20637;55.770;37.592;2022-07-01T02:43:07;99780.16;;;18.48;50.56
34374;BME280;20637;55.770;37.592;2022-07-01T02:45:33;99791.53;;;18.45;50.27
34374;BME280;20637;55.770;37.592;2022-07-01T02:47:59;99785.84;;;18.40;50.45
34374;BME280;20637;55.770;37.592;2022-07-01T02:50:27;99793.44;;;18.38;50.32
34374;BME280;20637;55.770;37.592;2022-07-01T02:52:53;99797.00;;;18.38;50.78
34374;BME280;20637;55.770;37.592;2022-07-01T02:55:19;99800.16;;;18.42;50.47
34374;BME280;20637;55.770;37.592;2022-07-01T02:57:45;99803.50;;;18.44;50.47
34374;BME280;20637;55.770;37.592;2022-07-01T03:00:13;99807.69;;;18.46;50.22
34374;BME280;20637;55.770;37.592;2022-07-01T03:02:40;99798.88;;;18.44;50.21
34374;BME280;20637;55.770;37.592;2022-07-01T03:05:07;99800.16;;;18.42;50.46
34374;BME280;20637;55.770;37.592;2022-07-01T03:07:33;99805.41;;;18.43;50.32
34374;BME280;20637;55.770;37.592;2022-07-01T03:10:01;99818.00;;;18.44;50.22
34374;BME280;20637;55.770;37.592;2022-07-01T03:12:28;99818.66;;;18.40;50.29
34374;BME280;20637;55.770;37.592;2022-07-01T03:14:58;99825.59;;;18.36;50.39
34374;BME280;20637;55.770;37.592;2022-07-01T03:17:25;99830.03;;;18.30;50.38
34374;BME280;20637;55.770;37.592;2022-07-01T03:19:52;99827.72;;;18.27;50.55
34374;BME280;20637;55.770;37.592;2022-07-01T03:22:20;99821.63;;;18.25;50.78
34374;BME280;20637;55.770;37.592;2022-07-01T03:24:49;99816.59;;;18.22;50.59
34374;BME280;20637;55.770;37.592;2022-07-01T03:27:15;99822.25;;;18.21;50.60
34374;BME280;20637;55.770;37.592;2022-07-01T03:29:41;99832.31;;;18.27;50.46
34374;BME280;20637;55.770;37.592;2022-07-01T03:32:08;99825.63;;;18.29;50.08
34374;BME280;20637;55.770;37.592;2022-07-01T03:34:39;99826.03;;;18.33;50.23
34374;BME280;20637;55.770;37.592;2022-07-01T03:37:06;99821.59;;;18.32;50.24
34374;BME280;20637;55.770;37.592;2022-07-01T03:39:33;99832.34;;;18.33;49.78
34374;BME280;20637;55.770;37.592;2022-07-01T03:41:59;99837.97;;;18.38;49.48
34374;BME280;20637;55.770;37.592;2022-07-01T03:44:24;99835.47;;;18.43;49.43
34374;BME280;20637;55.770;37.592;2022-07-01T03:46:50;99843.03;;;18.48;49.00
34374;BME280;20637;55.770;37.592;2022-07-01T03:49:16;99834.22;;;18.52;49.18
34374;BME280;20637;55.770;37.592;2022-07-01T03:51:42;99845.53;;;18.63;48.79
34374;BME280;20637;55.770;37.592;2022-07-01T03:54:07;99843.19;;;18.73;48.48
34374;BME280;20637;55.770;37.592;2022-07-01T03:56:52;99846.75;;;18.80;47.85
34374;BME280;20637;55.770;37.592;2022-07-01T03:59:17;99847.31;;;18.88;47.56
34374;BME280;20637;55.770;37.592;2022-07-01T04:01:43;99847.13;;;18.90;47.08
34374;BME280;20637;55.770;37.592;2022-07-01T04:04:09;99849.84;;;18.90;46.99
34374;BME280;20637;55.770;37.592;2022-07-01T04:06:34;99852.16;;;18.93;46.68
34374;BME280;20637;55.770;37.592;2022-07-01T04:09:00;99856.53;;;19.00;46.63
34374;BME280;20637;55.770;37.592;2022-07-01T04:11:26;99854.84;;;19.06;46.24
34374;BME280;20637;55.770;37.592;2022-07-01T04:13:52;99865.13;;;19.11;46.04
34374;BME280;20637;55.770;37.592;2022-07-01T04:16:18;99865.13;;;19.11;45.79
34374;BME280;20637;55.770;37.592;2022-07-01T04:18:47;99857.78;;;19.11;45.48
34374;BME280;20637;55.770;37.592;2022-07-01T04:21:13;99867.63;;;19.12;45.18
34374;BME280;20637;55.770;37.592;2022-07-01T04:23:57;99869.13;;;19.15;44.92
34374;BME280;20637;55.770;37.592;2022-07-01T04:26:24;99873.75;;;19.14;44.52
34374;BME280;20637;55.770;37.592;2022-07-01T04:28:53;99877.97;;;19.10;44.40
34374;BME280;20637;55.770;37.592;2022-07-01T04:31:20;99873.78;;;19.08;44.42
34374;BME280;20637;55.770;37.592;2022-07-01T04:33:47;99870.41;;;19.06;44.71
34374;BME280;20637;55.770;37.592;2022-07-01T04:36:14;99869.53;;;19.12;44.75
34374;BME280;20637;55.770;37.592;2022-07-01T04:38:40;99882.75;;;19.21;44.79
34374;BME280;20637;55.770;37.592;2022-07-01T04:41:06;99876.63;;;19.26;44.55
34374;BME280;20637;55.770;37.592;2022-07-01T04:43:50;99884.84;;;19.26;43.73
34374;BME280;20637;55.770;37.592;2022-07-01T04:46:16;99881.88;;;19.27;43.93
34374;BME280;20637;55.770;37.592;2022-07-01T04:48:42;99887.97;;;19.29;43.88
34374;BME280;20637;55.770;37.592;2022-07-01T04:51:07;99884.19;;;19.30;43.71
34374;BME280;20637;55.770;37.592;2022-07-01T04:53:33;99890.22;;;19.39;43.69
34374;BME280;20637;55.770;37.592;2022-07-01T04:55:59;99878.47;;;19.38;43.40
34374;BME280;20637;55.770;37.592;2022-07-01T04:58:24;99885.84;;;19.38;43.47
34374;BME280;20637;55.770;37.592;2022-07-01T05:00:51;99889.63;;;19.43;43.50
34374;BME280;20637;55.770;37.592;2022-07-01T05:03:17;99885.16;;;19.49;43.09
34374;BME280;20637;55.770;37.592;2022-07-01T05:05:43;99896.06;;;19.56;43.15
34374;BME280;20637;55.770;37.592;2022-07-01T05:08:09;99896.03;;;19.62;42.70
34374;BME280;20637;55.770;37.592;2022-07-01T05:10:34;99888.06;;;19.54;42.23
34374;BME280;20637;55.770;37.592;2022-07-01T05:13:00;99888.25;;;19.59;42.31
34374;BME280;20637;55.770;37.592;2022-07-01T05:15:26;99889.50;;;19.63;42.07
34374;BME280;20637;55.770;37.592;2022-07-01T05:17:51;99886.31;;;19.66;42.01
34374;BME280;20637;55.770;37.592;2022-07-01T05:20:36;99888.38;;;19.71;41.83
34374;BME280;20637;55.770;37.592;2022-07-01T05:23:20;99889.03;;;19.73;41.86
34374;BME280;20637;55.770;37.592;2022-07-01T05:25:47;99875.72;;;19.76;41.94
34374;BME280;20637;55.770;37.592;2022-07-01T05:28:13;99889.81;;;19.80;41.60
34374;BME280;20637;55.770;37.592;2022-07-01T05:30:39;99884.94;;;19.82;41.22
34374;BME280;20637;55.770;37.592;2022-07-01T05:33:04;99884.94;;;19.82;41.09
34374;BME280;20637;55.770;37.592;2022-07-01T05:35:30;99869.13;;;19.84;40.84
34374;BME280;20637;55.770;37.592;2022-07-01T05:37:56;99876.44;;;19.90;40.75
34374;BME280;20637;55.770;37.592;2022-07-01T05:40:22;99890.72;;;19.98;40.69
34374;BME280;20637;55.770;37.592;2022-07-01T05:42:48;99878.53;;;19.94;40.28
34374;BME280;20637;55.770;37.592;2022-07-01T05:45:14;99891.06;;;19.77;40.47
34374;BME280;20637;55.770;37.592;2022-07-01T05:47:39;99891.50;;;19.81;40.66
34374;BME280;20637;55.770;37.592;2022-07-01T05:50:06;99880.66;;;19.92;40.54
34374;BME280;20637;55.770;37.592;2022-07-01T05:52:32;99884.19;;;20.00;40.16
34374;BME280;20637;55.770;37.592;2022-07-01T05:54:58;99879.31;;;20.02;40.04
34374;BME280;20637;55.770;37.592;2022-07-01T05:57:23;99889.88;;;19.98;39.83
34374;BME280;20637;55.770;37.592;2022-07-01T05:59:49;99874.75;;;19.89;39.61
34374;BME280;20637;55.770;37.592;2022-07-01T06:02:15;99874.75;;;19.89;39.59
34374;BME280;20637;55.770;37.592;2022-07-01T06:04:40;99879.19;;;19.90;39.39
34374;BME280;20637;55.770;37.592;2022-07-01T06:07:09;99878.59;;;19.88;39.15
34374;BME280;20637;55.770;37.592;2022-07-01T06:09:36;99886.34;;;19.91;39.17
34374;BME280;20637;55.770;37.592;2022-07-01T06:12:03;99882.94;;;19.95;39.14
34374;BME280;20637;55.770;37.592;2022-07-01T06:14:29;99886.91;;;20.00;39.33
34374;BME280;20637;55.770;37.592;2022-07-01T06:16:55;99881.88;;;19.96;39.29
34374;BME280;20637;55.770;37.592;2022-07-01T06:19:20;99877.03;;;19.98;39.26
34374;BME280;20637;55.770;37.592;2022-07-01T06:21:46;99883.34;;;19.99;39.46
34374;BME280;20637;55.770;37.592;2022-07-01T06:24:12;99877.72;;;20.12;39.41
34374;BME280;20637;55.770;37.592;2022-07-01T06:26:39;99882.91;;;20.27;39.19
34374;BME280;20637;55.770;37.592;2022-07-01T06:29:05;99880.97;;;20.34;39.01
34374;BME280;20637;55.770;37.592;2022-07-01T06:31:31;99895.91;;;20.38;38.18
34374;BME280;20637;55.770;37.592;2022-07-01T06:33:59;99891.09;;;20.33;36.94
34374;BME280;20637;55.770;37.592;2022-07-01T06:36:25;99894.03;;;20.32;36.53
34374;BME280;20637;55.770;37.592;2022-07-01T06:38:51;99898.91;;;20.30;36.11
34374;BME280;20637;55.770;37.592;2022-07-01T06:41:17;99905.56;;;20.16;35.28
34374;BME280;20637;55.770;37.592;2022-07-01T06:43:53;99900.09;;;20.09;34.22
34374;BME280;20637;55.770;37.592;2022-07-01T06:46:19;99897.25;;;19.97;34.18
34374;BME280;20637;55.770;37.592;2022-07-01T06:48:45;99907.38;;;19.97;34.48
34374;BME280;20637;55.770;37.592;2022-07-01T06:51:11;99916.22;;;19.99;34.36
34374;BME280;20637;55.770;37.592;2022-07-01T06:53:36;99914.31;;;20.00;34.00
34374;BME280;20637;55.770;37.592;2022-07-01T06:56:02;99911.53;;;20.06;33.83
34374;BME280;20637;55.770;37.592;2022-07-01T06:58:28;99915.09;;;20.07;33.95
34374;BME280;20637;55.770;37.592;2022-07-01T07:00:54;99912.13;;;20.08;33.97
34374;BME280;20637;55.770;37.592;2022-07-01T07:03:20;99912.69;;;20.17;33.51
34374;BME280;20637;55.770;37.592;2022-07-01T07:05:45;99913.94;;;20.21;33.31
34374;BME280;20637;55.770;37.592;2022-07-01T07:08:11;99911.03;;;20.16;33.55
34374;BME280;20637;55.770;37.592;2022-07-01T07:10:37;99914.59;;;20.16;33.69
34374;BME280;20637;55.770;37.592;2022-07-01T07:13:03;99909.56;;;20.13;33.69
34374;BME280;20637;55.770;37.592;2022-07-01T07:15:29;99909.50;;;20.20;33.58
34374;BME280;20637;55.770;37.592;2022-07-01T07:17:55;99907.78;;;20.25;33.52
34374;BME280;20637;55.770;37.592;2022-07-01T07:20:26;99919.56;;;20.32;33.61
34374;BME280;20637;55.770;37.592;2022-07-01T07:22:52;99904.97;;;20.38;33.51
34374;BME280;20637;55.770;37.592;2022-07-01T07:25:18;99905.88;;;20.51;33.53
34374;BME280;20637;55.770;37.592;2022-07-01T07:27:44;99917.56;;;20.64;33.26
34374;BME280;20637;55.770;37.592;2022-07-01T07:30:13;99918.59;;;20.70;33.13
34374;BME280;20637;55.770;37.592;2022-07-01T07:32:38;99915.84;;;20.70;33.21
34374;BME280;20637;55.770;37.592;2022-07-01T07:35:06;99906.53;;;20.71;33.42
34374;BME280;20637;55.770;37.592;2022-07-01T07:37:32;99914.91;;;20.76;33.26
34374;BME280;20637;55.770;37.592;2022-07-01T07:39:59;99930.25;;;20.83;33.37
34374;BME280;20637;55.770;37.592;2022-07-01T07:42:25;99918.22;;;20.84;33.12
34374;BME280;20637;55.770;37.592;2022-07-01T07:44:50;99930.03;;;20.85;33.17
34374;BME280;20637;55.770;37.592;2022-07-01T07:47:16;99918.13;;;20.91;33.03
34374;BME280;20637;55.770;37.592;2022-07-01T07:49:42;99930.91;;;20.97;32.82
34374;BME280;20637;55.770;37.592;2022-07-01T07:52:08;99934.50;;;20.98;32.60
34374;BME280;20637;55.770;37.592;2022-07-01T07:54:33;99947.75;;;20.82;32.30
34374;BME280;20637;55.770;37.592;2022-07-01T07:56:59;99935.41;;;20.73;32.66
34374;BME280;20637;55.770;37.592;2022-07-01T07:59:25;99925.81;;;20.82;32.53
34374;BME280;20637;55.770;37.592;2022-07-01T08:01:50;99932.69;;;20.91;32.28
34374;BME280;20637;55.770;37.592;2022-07-01T08:04:16;99945.56;;;20.91;31.99
34374;BME280;20637;55.770;37.592;2022-07-01T08:06:42;99934.88;;;21.01;31.88
34374;BME280;20637;55.770;37.592;2022-07-01T08:09:07;99941.75;;;21.10;31.36
34374;BME280;20637;55.770;37.592;2022-07-01T08:11:33;99932.69;;;21.10;31.42
34374;BME280;20637;55.770;37.592;2022-07-01T08:13:59;99938.56;;;21.13;31.45
34374;BME280;20637;55.770;37.592;2022-07-01T08:16:25;99940.19;;;21.21;31.25
34374;BME280;20637;55.770;37.592;2022-07-01T08:18:51;99955.81;;;21.20;31.02
34374;BME280;20637;55.770;37.592;2022-07-01T08:21:20;99948.72;;;21.13;30.85
34374;BME280;20637;55.770;37.592;2022-07-01T08:23:57;99961.63;;;21.12;30.74
34374;BME280;20637;55.770;37.592;2022-07-01T08:26:23;99948.16;;;21.04;30.46
34374;BME280;20637;55.770;37.592;2022-07-01T08:28:52;99964.00;;;21.02;30.41
34374;BME280;20637;55.770;37.592;2022-07-01T08:31:19;99959.69;;;21.13;30.46
34374;BME280;20637;55.770;37.592;2022-07-01T08:33:59;99957.41;;;21.28;30.39
34374;BME280;20637;55.770;37.592;2022-07-01T08:36:25;99949.69;;;21.36;29.84
34374;BME280;20637;55.770;37.592;2022-07-01T08:38:51;99953.28;;;21.37;29.98
34374;BME280;20637;55.770;37.592;2022-07-01T08:41:18;99949.31;;;21.33;29.81
34374;BME280;20637;55.770;37.592;2022-07-01T08:43:45;99955.13;;;21.25;30.17
34374;BME280;20637;55.770;37.592;2022-07-01T08:46:12;99961.16;;;21.33;30.21
34374;BME280;20637;55.770;37.592;2022-07-01T08:48:44;99954.03;;;21.44;30.34
34374;BME280;20637;55.770;37.592;2022-07-01T08:51:10;99946.09;;;21.54;30.19
34374;BME280;20637;55.770;37.592;2022-07-01T08:53:36;99952.81;;;21.58;30.08
34374;BME280;20637;55.770;37.592;2022-07-01T08:56:02;99961.28;;;21.57;30.02
34374;BME280;20637;55.770;37.592;2022-07-01T08:58:50;99967.97;;;21.61;30.06
34374;BME280;20637;55.770;37.592;2022-07-01T09:01:26;99957.38;;;21.64;29.93
34374;BME280;20637;55.770;37.592;2022-07-01T09:03:54;99967.88;;;21.67;30.02
34374;BME280;20637;55.770;37.592;2022-07-01T09:06:22;99958.72;;;21.73;30.08
34374;BME280;20637;55.770;37.592;2022-07-01T09:08:48;99966.66;;;21.81;30.05
34374;BME280;20637;55.770;37.592;2022-07-01T09:11:20;99963.78;;;21.88;30.18
34374;BME280;20637;55.770;37.592;2022-07-01T09:14:05;99974.25;;;21.98;30.03
34374;BME280;20637;55.770;37.592;2022-07-01T09:16:54;99970.34;;;21.87;29.59
34374;BME280;20637;55.770;37.592;2022-07-01T09:19:23;99970.13;;;21.89;29.85
34374;BME280;20637;55.770;37.592;2022-07-01T09:21:49;99967.47;;;22.00;29.98
34374;BME280;20637;55.770;37.592;2022-07-01T09:27:03;99973.22;;;22.10;28.60
34374;BME280;20637;55.770;37.592;2022-07-01T09:29:37;99963.38;;;22.03;28.42
34374;BME280;20637;55.770;37.592;2022-07-01T09:32:06;99975.59;;;22.07;28.67
34374;BME280;20637;55.770;37.592;2022-07-01T09:34:40;99965.94;;;22.16;28.62
34374;BME280;20637;55.770;37.592;2022-07-01T09:37:07;99969.56;;;22.28;28.73
34374;BME280;20637;55.770;37.592;2022-07-01T09:39:44;99970.16;;;22.30;28.20
34374;BME280;20637;55.770;37.592;2022-07-01T09:42:10;99979.94;;;22.26;28.28
34374;BME280;20637;55.770;37.592;2022-07-01T09:45:00;99977.06;;;22.21;28.29
34374;BME280;20637;55.770;37.592;2022-07-01T09:47:33;99981.59;;;22.15;28.42
34374;BME280;20637;55.770;37.592;2022-07-01T09:49:59;99977.41;;;22.24;28.55
34374;BME280;20637;55.770;37.592;2022-07-01T09:52:25;99975.78;;;22.35;28.52
34374;BME280;20637;55.770;37.592;2022-07-01T09:54:51;99971.25;;;22.52;28.37
34374;BME280;20637;55.770;37.592;2022-07-01T09:57:18;99994.28;;;22.69;28.12
34374;BME280;20637;55.770;37.592;2022-07-01T09:59:44;99985.38;;;22.56;27.92
34374;BME280;20637;55.770;37.592;2022-07-01T10:02:11;99970.78;;;22.55;28.10
34374;BME280;20637;55.770;37.592;2022-07-01T10:04:39;99974.19;;;22.69;27.69
34374;BME280;20637;55.770;37.592;2022-07-01T10:10:16;99966.63;;;22.76;27.48
34374;BME280;20637;55.770;37.592;2022-07-01T10:12:50;99985.31;;;22.74;27.09
34374;BME280;20637;55.770;37.592;2022-07-01T10:15:18;99974.63;;;22.66;26.96
34374;BME280;20637;55.770;37.592;2022-07-01T10:17:47;99978.63;;;22.70;27.09
34374;BME280;20637;55.770;37.592;2022-07-01T10:22:40;99976.66;;;22.59;27.48
34374;BME280;20637;55.770;37.592;2022-07-01T10:25:29;99980.63;;;22.63;27.06
34374;BME280;20637;55.770;37.592;2022-07-01T10:31:05;99984.09;;;22.58;27.18
34374;BME280;20637;55.770;37.592;2022-07-01T10:33:32;99977.03;;;22.62;27.09
34374;BME280;20637;55.770;37.592;2022-07-01T10:41:32;99988.44;;;23.01;27.78
34374;BME280;20637;55.770;37.592;2022-07-01T10:44:01;99982.44;;;23.04;27.91
34374;BME280;20637;55.770;37.592;2022-07-01T10:46:47;99977.78;;;23.04;27.49
34374;BME280;20637;55.770;37.592;2022-07-01T10:49:20;99974.19;;;22.92;27.52
34374;BME280;20637;55.770;37.592;2022-07-01T10:51:53;99977.66;;;22.99;27.66
34374;BME280;20637;55.770;37.592;2022-07-01T10:54:55;99969.03;;;22.96;26.69
34374;BME280;20637;55.770;37.592;2022-07-01T10:57:28;99974.66;;;22.89;26.83
34374;BME280;20637;55.770;37.592;2022-07-01T11:02:41;99971.31;;;22.75;26.58
34374;BME280;20637;55.770;37.592;2022-07-01T11:05:12;99961.50;;;22.79;26.89
34374;BME280;20637;55.770;37.592;2022-07-01T11:07:40;99965.56;;;23.00;26.84
34374;BME280;20637;55.770;37.592;2022-07-01T11:10:09;99968.88;;;23.14;26.34
34374;BME280;20637;55.770;37.592;2022-07-01T11:12:39;99968.88;;;23.14;26.34
34374;BME280;20637;55.770;37.592;2022-07-01T11:15:06;99960.72;;;23.31;26.37
34374;BME280;20637;55.770;37.592;2022-07-01T11:17:33;99965.25;;;23.25;26.09
34374;BME280;20637;55.770;37.592;2022-07-01T11:20:00;99964.47;;;23.24;25.90
34374;BME280;20637;55.770;37.592;2022-07-01T11:22:33;99958.00;;;23.19;25.46
34374;BME280;20637;55.770;37.592;2022-07-01T11:25:04;99970.56;;;23.15;25.59
34374;BME280;20637;55.770;37.592;2022-07-01T11:27:31;99969.16;;;23.12;26.12
34374;BME280;20637;55.770;37.592;2022-07-01T11:30:03;99958.22;;;23.17;26.10
34374;BME280;20637;55.770;37.592;2022-07-01T11:32:45;99963.69;;;23.29;26.29
34374;BME280;20637;55.770;37.592;2022-07-01T11:35:31;99957.72;;;23.44;26.44
34374;BME280;20637;55.770;37.592;2022-07-01T11:38:20;99954.09;;;23.55;26.10
34374;BME280;20637;55.770;37.592;2022-07-01T11:41:07;99961.72;;;23.64;26.13
34374;BME280;20637;55.770;37.592;2022-07-01T11:43:38;99964.34;;;23.71;26.13
34374;BME280;20637;55.770;37.592;2022-07-01T11:46:06;99954.41;;;23.70;26.10
34374;BME280;20637;55.770;37.592;2022-07-01T11:50:59;99979.69;;;23.67;26.01
34374;BME280;20637;55.770;37.592;2022-07-01T11:53:26;99989.66;;;23.56;25.86
34374;BME280;20637;55.770;37.592;2022-07-01T11:55:52;99989.22;;;23.48;26.09
34374;BME280;20637;55.770;37.592;2022-07-01T11:58:17;99984.06;;;23.40;26.39
34374;BME280;20637;55.770;37.592;2022-07-01T12:00:43;99978.91;;;23.55;26.43
34374;BME280;20637;55.770;37.592;2022-07-01T12:03:09;99975.28;;;23.66;26.24
34374;BME280;20637;55.770;37.592;2022-07-01T12:05:36;99976.19;;;23.71;26.26
34374;BME280;20637;55.770;37.592;2022-07-01T12:08:03;99974.97;;;23.79;26.35
34374;BME280;20637;55.770;37.592;2022-07-01T12:10:30;99983.44;;;23.89;26.64
34374;BME280;20637;55.770;37.592;2022-07-01T12:12:56;99986.31;;;23.83;26.40
34374;BME280;20637;55.770;37.592;2022-07-01T12:15:22;99985.34;;;23.60;26.08
34374;BME280;20637;55.770;37.592;2022-07-01T12:17:48;99980.81;;;23.54;26.17
34374;BME280;20637;55.770;37.592;2022-07-01T12:20:14;99985.25;;;23.55;26.23
34374;BME280;20637;55.770;37.592;2022-07-01T12:22:39;99976.84;;;23.62;26.53
34374;BME280;20637;55.770;37.592;2022-07-01T12:25:08;99985.22;;;23.67;26.24
34374;BME280;20637;55.770;37.592;2022-07-01T12:27:35;99979.66;;;23.79;25.94
34374;BME280;20637;55.770;37.592;2022-07-01T12:30:03;99979.09;;;23.93;25.96
34374;BME280;20637;55.770;37.592;2022-07-01T12:32:29;99992.09;;;24.09;25.90
34374;BME280;20637;55.770;37.592;2022-07-01T12:35:01;99992.50;;;24.01;25.71
34374;BME280;20637;55.770;37.592;2022-07-01T12:37:34;99988.56;;;23.97;25.58
34374;BME280;20637;55.770;37.592;2022-07-01T12:40:08;99999.16;;;23.89;25.50
34374;BME280;20637;55.770;37.592;2022-07-01T12:42:37;99993.19;;;23.80;25.55
34374;BME280;20637;55.770;37.592;2022-07-01T12:45:09;99994.88;;;23.81;25.83
34374;BME280;20637;55.770;37.592;2022-07-01T12:50:11;100000.81;;;23.90;25.96
34374;BME280;20637;55.770;37.592;2022-07-01T12:52:38;99997.06;;;23.96;25.37
34374;BME280;20637;55.770;37.592;2022-07-01T12:55:18;99988.28;;;23.99;24.88
34374;BME280;20637;55.770;37.592;2022-07-01T12:57:52;100000.06;;;23.94;24.67
34374;BME280;20637;55.770;37.592;2022-07-01T13:00:20;99998.66;;;23.92;24.70
34374;BME280;20637;55.770;37.592;2022-07-01T13:02:46;99999.59;;;23.97;24.75
34374;BME280;20637;55.770;37.592;2022-07-01T13:05:12;100005.91;;;24.09;25.21
34374;BME280;20637;55.770;37.592;2022-07-01T13:07:38;100016.94;;;24.09;25.16
34374;BME280;20637;55.770;37.592;2022-07-01T13:10:04;100009.03;;;24.01;24.85
34374;BME280;20637;55.770;37.592;2022-07-01T13:12:31;100011.69;;;23.96;25.00
34374;BME280;20637;55.770;37.592;2022-07-01T13:14:57;100001.16;;;23.93;25.04
34374;BME280;20637;55.770;37.592;2022-07-01T13:17:24;100006.56;;;23.88;25.01
34374;BME280;20637;55.770;37.592;2022-07-01T13:19:50;100008.16;;;23.84;25.37